Time,TemperatureF,DewpointF,PressureIn,WindDirection,WindDirectionDegrees,WindSpeedMPH,WindSpeedGustMPH,Humidity,HourlyPrecipIn,Conditions,Clouds,dailyrainin,SolarRadiationWatts/m^2,SoftwareType,DateUTC
2013-06-11 00:07:00,66.5,64.0,29.93,East,98,0.0,1.0,92,0.00,,,0.00,0,weatherlink.com 1.10,2013-06-11 04:07:00,
2013-06-11 00:22:00,66.3,64.0,29.93,East,98,0.0,1.0,93,0.00,,,0.00,0,weatherlink.com 1.10,2013-06-11 04:22:00,
2013-06-11 00:37:00,66.1,64.0,29.93,East,98,0.0,0.0,94,0.00,,,0.00,0,weatherlink.com 1.10,2013-06-11 04:37:00,
2013-06-11 00:52:00,65.7,64.0,29.93,East,98,0.0,1.0,94,0.00,,,0.00,0,weatherlink.com 1.10,2013-06-11 04:52:00,
2013-06-11 01:07:00,65.4,64.0,29.92,ESE,115,4.0,5.0,95,0.00,,,0.00,0,weatherlink.com 1.10,2013-06-11 05:07:00,
2013-06-11 01:22:00,65.6,64.0,29.91,SE,136,2.0,3.0,95,0.00,,,0.00,0,weatherlink.com 1.10,2013-06-11 05:22:00,
2013-06-11 01:37:00,65.8,64.0,29.91,East,96,0.0,1.0,95,0.00,,,0.00,0,weatherlink.com 1.10,2013-06-11 05:37:00,
2013-06-11 01:52:00,66.2,65.0,29.92,NNW,329,0.0,3.0,95,0.00,,,0.00,0,weatherlink.com 1.10,2013-06-11 05:52:00,
2013-06-11 02:07:00,66.7,66.0,29.93,NNE,13,7.0,8.0,96,0.03,,,0.03,0,weatherlink.com 1.10,2013-06-11 06:07:00,
2013-06-11 02:22:00,66.6,65.0,29.93,East,81,2.0,3.0,95,0.06,,,0.06,0,weatherlink.com 1.10,2013-06-11 06:22:00,
2013-06-11 02:37:00,66.7,65.0,29.92,ENE,73,0.0,2.0,95,0.06,,,0.06,0,weatherlink.com 1.10,2013-06-11 06:37:00,
2013-06-11 02:52:00,66.8,65.0,29.93,SE,128,3.0,7.0,95,0.20,,,0.20,0,weatherlink.com 1.10,2013-06-11 06:52:00,
2013-06-11 03:07:00,67.1,65.0,29.93,WNW,291,0.0,6.0,94,0.27,,,0.30,0,weatherlink.com 1.10,2013-06-11 07:07:00,
2013-06-11 03:22:00,67.2,66.0,29.93,West,261,0.0,2.0,95,0.27,,,0.33,0,weatherlink.com 1.10,2013-06-11 07:22:00,
2013-06-11 03:37:00,67.2,66.0,29.93,West,261,0.0,0.0,95,0.27,,,0.33,0,weatherlink.com 1.10,2013-06-11 07:37:00,
2013-06-11 03:52:00,67.2,66.0,29.93,West,261,0.0,0.0,95,0.12,,,0.33,0,weatherlink.com 1.10,2013-06-11 07:52:00,
2013-06-11 04:07:00,67.1,66.0,29.92,East,101,0.0,2.0,95,0.03,,,0.33,0,weatherlink.com 1.10,2013-06-11 08:07:00,
2013-06-11 04:22:00,67.1,66.0,29.92,East,101,0.0,0.0,96,0.00,,,0.33,0,weatherlink.com 1.10,2013-06-11 08:22:00,
2013-06-11 04:37:00,67.2,66.0,29.92,East,101,1.0,1.0,96,0.00,,,0.33,0,weatherlink.com 1.10,2013-06-11 08:37:00,
2013-06-11 04:52:00,67.2,66.0,29.92,East,101,0.0,0.0,96,0.00,,,0.33,0,weatherlink.com 1.10,2013-06-11 08:52:00,
2013-06-11 05:07:00,67.3,66.0,29.93,East,101,0.0,0.0,96,0.00,,,0.33,0,weatherlink.com 1.10,2013-06-11 09:07:00,
2013-06-11 05:22:00,67.2,66.0,29.93,East,101,0.0,0.0,96,0.00,,,0.33,0,weatherlink.com 1.10,2013-06-11 09:22:00,
2013-06-11 05:37:00,67.3,66.0,29.93,East,101,0.0,1.0,96,0.00,,,0.33,0,weatherlink.com 1.10,2013-06-11 09:37:00,
2013-06-11 05:52:00,67.4,66.0,29.93,East,101,0.0,0.0,96,0.00,,,0.33,0,weatherlink.com 1.10,2013-06-11 09:52:00,
2013-06-11 06:07:00,67.1,66.0,29.94,East,84,0.0,0.0,96,0.00,,,0.33,0,weatherlink.com 1.10,2013-06-11 10:07:00,
2013-06-11 06:22:00,67.0,66.0,29.94,NNE,15,0.0,1.0,96,0.00,,,0.33,0,weatherlink.com 1.10,2013-06-11 10:22:00,
2013-06-11 06:37:00,67.0,66.0,29.95,ENE,62,0.0,0.0,96,0.00,,,0.33,9,weatherlink.com 1.10,2013-06-11 10:37:00,
2013-06-11 06:52:00,66.9,66.0,29.95,NNE,22,0.0,1.0,96,0.00,,,0.33,12,weatherlink.com 1.10,2013-06-11 10:52:00,
2013-06-11 07:07:00,67.0,66.0,29.95,ESE,117,0.0,1.0,96,0.00,,,0.33,26,weatherlink.com 1.10,2013-06-11 11:07:00,
2013-06-11 07:22:00,67.2,66.0,29.96,SW,228,0.0,0.0,97,0.00,,,0.33,26,weatherlink.com 1.10,2013-06-11 11:22:00,
2013-06-11 07:37:00,67.4,67.0,29.96,SSE,153,0.0,1.0,97,0.00,,,0.33,37,weatherlink.com 1.10,2013-06-11 11:37:00,
2013-06-11 07:52:00,67.5,66.0,29.97,ENE,70,0.0,1.0,96,0.00,,,0.33,46,weatherlink.com 1.10,2013-06-11 11:52:00,
2013-06-11 08:08:00,67.9,67.0,29.97,ESE,117,0.0,1.0,96,0.00,,,0.33,79,weatherlink.com 1.10,2013-06-11 12:08:00,
2013-06-11 08:23:00,68.4,67.0,29.97,NNE,22,0.0,0.0,95,0.00,,,0.33,104,weatherlink.com 1.10,2013-06-11 12:23:00,
2013-06-11 08:38:00,68.9,67.0,29.98,SE,126,0.0,2.0,94,0.00,,,0.33,156,weatherlink.com 1.10,2013-06-11 12:38:00,
2013-06-11 08:53:00,69.0,67.0,29.98,WNW,295,0.0,2.0,94,0.00,,,0.33,81,weatherlink.com 1.10,2013-06-11 12:53:00,
2013-06-11 09:08:00,69.6,68.0,29.99,NW,316,1.0,4.0,93,0.00,,,0.33,123,weatherlink.com 1.10,2013-06-11 13:08:00,
2013-06-11 09:23:00,70.0,68.0,29.99,NNW,344,3.0,5.0,93,0.00,,,0.33,192,weatherlink.com 1.10,2013-06-11 13:23:00,
2013-06-11 09:38:00,70.4,68.0,29.98,NW,323,2.0,6.0,91,0.00,,,0.33,327,weatherlink.com 1.10,2013-06-11 13:38:00,
2013-06-11 09:53:00,70.6,69.0,29.99,WNW,298,1.0,2.0,93,0.00,,,0.33,207,weatherlink.com 1.10,2013-06-11 13:53:00,
2013-06-11 10:08:00,71.5,69.0,29.99,WNW,296,3.0,5.0,90,0.00,,,0.33,172,weatherlink.com 1.10,2013-06-11 14:08:00,
2013-06-11 10:23:00,72.4,70.0,29.99,WNW,302,4.0,6.0,91,0.00,,,0.33,248,weatherlink.com 1.10,2013-06-11 14:23:00,
2013-06-11 10:38:00,72.7,69.0,29.99,NW,312,3.0,6.0,89,0.00,,,0.33,397,weatherlink.com 1.10,2013-06-11 14:38:00,
2013-06-11 10:53:00,72.9,69.0,29.99,North,9,6.0,8.0,87,0.00,,,0.33,357,weatherlink.com 1.10,2013-06-11 14:53:00,
2013-06-11 11:08:00,73.8,69.0,29.99,WNW,298,4.0,8.0,85,0.00,,,0.33,287,weatherlink.com 1.10,2013-06-11 15:08:00,
2013-06-11 11:23:00,75.1,71.0,29.98,NNW,331,4.0,7.0,86,0.00,,,0.33,853,weatherlink.com 1.10,2013-06-11 15:23:00,
2013-06-11 11:38:00,75.7,70.0,29.98,NW,321,4.0,9.0,83,0.00,,,0.33,828,weatherlink.com 1.10,2013-06-11 15:38:00,
2013-06-11 11:53:00,76.0,70.0,29.98,NW,323,5.0,9.0,82,0.00,,,0.33,891,weatherlink.com 1.10,2013-06-11 15:53:00,
2013-06-11 12:08:00,76.6,70.0,29.98,West,275,5.0,10.0,79,0.00,,,0.33,881,weatherlink.com 1.10,2013-06-11 16:08:00,
2013-06-11 12:23:00,77.6,70.0,29.97,NNW,333,5.0,8.0,77,0.00,,,0.33,935,weatherlink.com 1.10,2013-06-11 16:23:00,
2013-06-11 12:38:00,77.9,70.0,29.98,NW,312,4.0,15.0,76,0.00,,,0.33,265,weatherlink.com 1.10,2013-06-11 16:38:00,
2013-06-11 12:53:00,78.4,70.0,29.97,WSW,254,3.0,10.0,75,0.00,,,0.33,1062,weatherlink.com 1.10,2013-06-11 16:53:00,
2013-06-11 13:08:00,79.6,71.0,29.97,West,280,4.0,8.0,74,0.00,,,0.33,974,weatherlink.com 1.10,2013-06-11 17:08:00,
2013-06-11 13:23:00,79.6,69.0,29.96,NW,325,4.0,11.0,71,0.00,,,0.33,956,weatherlink.com 1.10,2013-06-11 17:23:00,
2013-06-11 13:38:00,80.1,68.0,29.96,West,281,4.0,9.0,66,0.00,,,0.33,227,weatherlink.com 1.10,2013-06-11 17:38:00,
2013-06-11 13:53:00,79.7,69.0,29.96,West,271,7.0,13.0,69,0.00,,,0.33,229,weatherlink.com 1.10,2013-06-11 17:53:00,
2013-06-11 14:08:00,80.2,66.0,29.96,WSW,253,3.0,13.0,63,0.00,,,0.33,979,weatherlink.com 1.10,2013-06-11 18:08:00,
2013-06-11 14:23:00,80.7,66.0,29.95,SW,231,2.0,14.0,61,0.00,,,0.33,962,weatherlink.com 1.10,2013-06-11 18:23:00,
2013-06-11 14:38:00,80.5,65.0,29.95,NW,313,6.0,15.0,59,0.00,,,0.33,1021,weatherlink.com 1.10,2013-06-11 18:38:00,
2013-06-11 14:53:00,80.9,67.0,29.96,NW,309,11.0,13.0,62,0.00,,,0.33,923,weatherlink.com 1.10,2013-06-11 18:53:00,
2013-06-11 15:08:00,81.2,66.0,29.95,WNW,297,11.0,11.0,61,0.00,,,0.33,853,weatherlink.com 1.10,2013-06-11 19:08:00,
2013-06-11 15:23:00,81.1,66.0,29.95,North,355,2.0,10.0,60,0.00,,,0.33,870,weatherlink.com 1.10,2013-06-11 19:23:00,
2013-06-11 15:38:00,81.8,67.0,29.95,SW,230,3.0,9.0,61,0.00,,,0.33,838,weatherlink.com 1.10,2013-06-11 19:38:00,
2013-06-11 15:54:00,81.6,66.0,29.95,WSW,257,3.0,11.0,59,0.00,,,0.33,795,weatherlink.com 1.10,2013-06-11 19:54:00,
2013-06-11 16:09:00,81.8,69.0,29.94,WNW,303,3.0,9.0,65,0.00,,,0.33,775,weatherlink.com 1.10,2013-06-11 20:09:00,
2013-06-11 16:24:00,81.9,69.0,29.94,NNW,331,3.0,11.0,64,0.00,,,0.33,737,weatherlink.com 1.10,2013-06-11 20:24:00,
2013-06-11 16:39:00,82.3,67.0,29.94,NW,325,3.0,9.0,61,0.00,,,0.33,693,weatherlink.com 1.10,2013-06-11 20:39:00,
2013-06-11 16:54:00,82.2,69.0,29.94,West,265,3.0,7.0,65,0.00,,,0.33,671,weatherlink.com 1.10,2013-06-11 20:54:00,
2013-06-11 17:09:00,82.4,69.0,29.93,West,259,2.0,8.0,65,0.00,,,0.33,610,weatherlink.com 1.10,2013-06-11 21:09:00,
2013-06-11 17:24:00,82.2,67.0,29.93,West,263,3.0,8.0,61,0.00,,,0.33,599,weatherlink.com 1.10,2013-06-11 21:24:00,
2013-06-11 17:39:00,82.5,70.0,29.94,WNW,291,3.0,8.0,65,0.00,,,0.33,536,weatherlink.com 1.10,2013-06-11 21:39:00,
2013-06-11 17:54:00,82.0,68.0,29.93,WNW,302,4.0,10.0,62,0.00,,,0.33,462,weatherlink.com 1.10,2013-06-11 21:54:00,
2013-06-11 18:09:00,81.9,68.0,29.93,West,277,7.0,8.0,62,0.00,,,0.33,376,weatherlink.com 1.10,2013-06-11 22:09:00,
2013-06-11 18:24:00,81.8,66.0,29.93,West,259,2.0,8.0,59,0.00,,,0.33,388,weatherlink.com 1.10,2013-06-11 22:24:00,
2013-06-11 18:39:00,81.7,69.0,29.93,WNW,303,5.0,6.0,65,0.00,,,0.33,325,weatherlink.com 1.10,2013-06-11 22:39:00,
2013-06-11 18:54:00,81.2,67.0,29.93,NW,313,1.0,8.0,63,0.00,,,0.33,283,weatherlink.com 1.10,2013-06-11 22:54:00,
2013-06-11 19:09:00,80.9,68.0,29.93,SW,235,6.0,9.0,64,0.00,,,0.33,236,weatherlink.com 1.10,2013-06-11 23:09:00,
2013-06-11 19:24:00,80.7,67.0,29.93,NW,325,4.0,8.0,64,0.00,,,0.33,163,weatherlink.com 1.10,2013-06-11 23:24:00,
2013-06-11 19:39:00,81.1,68.0,29.93,NW,306,0.0,4.0,65,0.00,,,0.33,121,weatherlink.com 1.10,2013-06-11 23:39:00,
2013-06-11 19:54:00,80.1,68.0,29.93,West,273,3.0,8.0,67,0.00,,,0.33,93,weatherlink.com 1.10,2013-06-11 23:54:00,
2013-06-11 20:09:00,79.1,68.0,29.93,NW,316,1.0,5.0,68,0.00,,,0.33,47,weatherlink.com 1.10,2013-06-12 00:09:00,
2013-06-11 20:24:00,77.9,68.0,29.93,WNW,289,0.0,3.0,72,0.00,,,0.33,19,weatherlink.com 1.10,2013-06-12 00:24:00,
2013-06-11 20:39:00,76.4,68.0,29.93,SW,215,0.0,1.0,76,0.00,,,0.33,9,weatherlink.com 1.10,2013-06-12 00:39:00,
2013-06-11 20:54:00,75.3,68.0,29.93,NW,309,1.0,2.0,78,0.00,,,0.33,0,weatherlink.com 1.10,2013-06-12 00:54:00,
2013-06-11 21:09:00,73.6,68.0,29.93,NNW,331,0.0,1.0,82,0.00,,,0.33,0,weatherlink.com 1.10,2013-06-12 01:09:00,
2013-06-11 21:24:00,72.0,67.0,29.94,NNW,331,0.0,0.0,85,0.00,,,0.33,0,weatherlink.com 1.10,2013-06-12 01:24:00,
2013-06-11 21:39:00,71.2,67.0,29.95,NNW,331,0.0,0.0,87,0.00,,,0.33,0,weatherlink.com 1.10,2013-06-12 01:39:00,
2013-06-11 21:54:00,70.5,67.0,29.96,NNW,331,0.0,0.0,88,0.00,,,0.33,0,weatherlink.com 1.10,2013-06-12 01:54:00,
2013-06-11 22:09:00,69.7,66.0,29.96,NNW,331,0.0,0.0,89,0.00,,,0.33,0,weatherlink.com 1.10,2013-06-12 02:09:00,
2013-06-11 22:24:00,69.1,66.0,29.97,East,94,0.0,2.0,90,0.00,,,0.33,0,weatherlink.com 1.10,2013-06-12 02:24:00,
2013-06-11 22:39:00,68.7,66.0,29.97,East,94,0.0,0.0,91,0.00,,,0.33,0,weatherlink.com 1.10,2013-06-12 02:39:00,
2013-06-11 22:54:00,68.2,66.0,29.98,East,94,1.0,2.0,92,0.00,,,0.33,0,weatherlink.com 1.10,2013-06-12 02:54:00,
2013-06-11 23:09:00,68.1,66.0,29.97,East,101,0.0,1.0,93,0.00,,,0.33,0,weatherlink.com 1.10,2013-06-12 03:09:00,
2013-06-11 23:24:00,67.7,66.0,29.98,East,101,1.0,2.0,93,0.00,,,0.33,0,weatherlink.com 1.10,2013-06-12 03:24:00,
2013-06-11 23:39:00,67.4,65.0,29.98,East,101,0.0,0.0,93,0.00,,,0.33,0,weatherlink.com 1.10,2013-06-12 03:39:00,
2013-06-11 23:54:00,66.9,65.0,29.98,East,101,0.0,0.0,93,0.00,,,0.33,0,weatherlink.com 1.10,2013-06-12 03:54:00,